Tuesday, September 16, 2014
13:34 UTC
  |  Log In   |  Register Free
Airport Search:

De Kalb County Airport
(KGWB)

De Kalb County Airport Diagram
No Airport Diagram Available

FAA data valid effective July 24, 2014 until September 18, 2014 (unless otherwise noted).

 
 
 
 
 
 
 
 
 
 
 
 
 
 

Current Aviation Weather for De Kalb County Airport (KGWB)

The most recent METAR observation for KGWB was updated at: 1311
METAR Summary (Translated METAR)
KGWB
161255Z AUTO 00000KT 10SM OVC008 11/09 A3020 RMK AO2
KANQ
161255Z AUTO 00000KT 10SM BKN006 11/03 A3018 RMK
(20 nm NW from KGWB)
KFWA
161254Z 36003KT 8SM FEW014 13/11 A3019 RMK AO2 SLP223 T01280106
(20.6 nm SW from KGWB)
TAF Summary (Translated TAF)
KFWA
(20.6 nm SW from KGWB)
161135Z 1612/1712 36006KT 6SM BR FEW005 SCT020 TEMPO 1612/1613 3SM BR SCT005 FM161400 35005KT P6SM BKN030 FM161500 33006KT P6SM SCT040 FM170000 VRB03KT P6SM FEW040
  Airport Weather Conditions for KGWB

 Current Weather at GWB
52° F
Overcast
North winds at 0.0 mph
GWB NOAA Radar

Pressure: 30.20 in
Humidity: 88%
Wind: Calm
Dew Point: 48.2°F
Visibility: 10.00 mi


Airport Weather Forecast for KGWB

Translated METAR and TAF for KGWB
Translated METAR for KGWB (1328 UTC 16 September 2014)
found at http://aviationweather.gov/adds/metars/
 
METAR text: KGWB 161255Z AUTO 00000KT 10SM OVC008 11/09 A3020 RMK AO2
Conditions at: KGWB (AUBURN DEKALB C , IN, US) observed 1255 UTC 16 September 2014
Temperature: 11.0°C (52°F)
Dewpoint: 9.0°C (48°F) [RH = 87%]
Pressure (altimeter): 30.20 inches Hg (1022.8 mb)
Winds: calm
Visibility: 10 or more miles (16+ km)
Ceiling: 800 feet AGL
Clouds: overcast cloud deck at 800 feet AGL
Weather: automated observation with no human augmentation;
there may or may not be significant weather present at this time
Translated TAF for KGWB

There is no translated TAF available for this airport

Find All Airport Services Find A Hotel Find A Rental Car Find A Golf Course Find A Restaurant $100 Hamburger



FBO's on the Field
FBO Company Facility Photos Services Transportation Aviation Fuel Prices: Prices include tax
Catering Weather Repair Courtesy Rental Type 100LL JetA JetA+ MOGAS 8087
 
Century Aviation

This FBO has not yet been rated
FS:Shell
Last Updated: Aug-20
Login to update fuel prices
SS:
Contact Century AviationMore FBO Information
 
Add another FBO Facility Photos Catering Weather Repair Courtesy Rental Type 100LL JetA JetA+ MOGAS 8087
Services Transportation Aviation Fuel Prices: Prices include tax


model-print
model-print
model-print
model-print